sensor_id;sensor_type;location;lat;lon;timestamp;P1;durP1;ratioP1;P2;durP2;ratioP2
35990;SDS011;22064;42.672;23.282;2023-09-07T00:00:29;13.38;;;8.38;;
35990;SDS011;22064;42.672;23.282;2023-09-07T00:02:56;13.40;;;7.68;;
35990;SDS011;22064;42.672;23.282;2023-09-07T00:05:22;15.10;;;8.85;;
35990;SDS011;22064;42.672;23.282;2023-09-07T00:07:48;14.65;;;8.18;;
35990;SDS011;22064;42.672;23.282;2023-09-07T00:10:14;15.75;;;8.85;;
35990;SDS011;22064;42.672;23.282;2023-09-07T00:12:40;14.40;;;8.30;;
35990;SDS011;22064;42.672;23.282;2023-09-07T00:15:06;15.10;;;8.48;;
35990;SDS011;22064;42.672;23.282;2023-09-07T00:17:33;15.77;;;9.20;;
35990;SDS011;22064;42.672;23.282;2023-09-07T00:19:58;17.05;;;9.30;;
35990;SDS011;22064;42.672;23.282;2023-09-07T00:22:24;16.25;;;9.15;;
35990;SDS011;22064;42.672;23.282;2023-09-07T00:24:51;15.57;;;9.18;;
35990;SDS011;22064;42.672;23.282;2023-09-07T00:27:17;15.88;;;9.32;;
35990;SDS011;22064;42.672;23.282;2023-09-07T00:29:43;17.60;;;9.43;;
35990;SDS011;22064;42.672;23.282;2023-09-07T00:32:09;15.38;;;9.25;;
35990;SDS011;22064;42.672;23.282;2023-09-07T00:34:35;16.75;;;9.10;;
35990;SDS011;22064;42.672;23.282;2023-09-07T00:37:02;18.48;;;9.73;;
35990;SDS011;22064;42.672;23.282;2023-09-07T00:39:28;16.27;;;9.35;;
35990;SDS011;22064;42.672;23.282;2023-09-07T00:41:54;17.00;;;9.75;;
35990;SDS011;22064;42.672;23.282;2023-09-07T00:44:21;15.75;;;9.57;;
35990;SDS011;22064;42.672;23.282;2023-09-07T00:46:47;17.98;;;10.60;;
35990;SDS011;22064;42.672;23.282;2023-09-07T00:49:13;16.67;;;10.18;;
35990;SDS011;22064;42.672;23.282;2023-09-07T00:51:39;18.88;;;10.77;;
35990;SDS011;22064;42.672;23.282;2023-09-07T00:54:06;18.27;;;11.00;;
35990;SDS011;22064;42.672;23.282;2023-09-07T00:56:32;19.48;;;11.98;;
35990;SDS011;22064;42.672;23.282;2023-09-07T00:58:59;19.60;;;11.60;;
35990;SDS011;22064;42.672;23.282;2023-09-07T01:01:26;19.48;;;11.73;;
35990;SDS011;22064;42.672;23.282;2023-09-07T01:03:52;21.75;;;11.68;;
35990;SDS011;22064;42.672;23.282;2023-09-07T01:08:49;19.83;;;11.25;;
35990;SDS011;22064;42.672;23.282;2023-09-07T01:11:22;20.20;;;12.40;;
35990;SDS011;22064;42.672;23.282;2023-09-07T01:13:52;20.75;;;13.13;;
35990;SDS011;22064;42.672;23.282;2023-09-07T01:16:20;21.85;;;13.05;;
35990;SDS011;22064;42.672;23.282;2023-09-07T01:18:47;23.48;;;12.95;;
35990;SDS011;22064;42.672;23.282;2023-09-07T01:21:13;23.23;;;14.75;;
35990;SDS011;22064;42.672;23.282;2023-09-07T01:23:40;22.08;;;13.82;;
35990;SDS011;22064;42.672;23.282;2023-09-07T01:26:08;21.70;;;13.55;;
35990;SDS011;22064;42.672;23.282;2023-09-07T01:28:35;22.55;;;13.93;;
35990;SDS011;22064;42.672;23.282;2023-09-07T01:31:02;21.50;;;13.43;;
35990;SDS011;22064;42.672;23.282;2023-09-07T01:33:29;22.70;;;13.90;;
35990;SDS011;22064;42.672;23.282;2023-09-07T01:35:55;21.10;;;13.52;;
35990;SDS011;22064;42.672;23.282;2023-09-07T01:38:22;22.85;;;13.50;;
35990;SDS011;22064;42.672;23.282;2023-09-07T01:40:48;24.88;;;15.70;;
35990;SDS011;22064;42.672;23.282;2023-09-07T01:43:14;25.70;;;16.00;;
35990;SDS011;22064;42.672;23.282;2023-09-07T01:45:40;22.02;;;13.95;;
35990;SDS011;22064;42.672;23.282;2023-09-07T01:48:10;22.20;;;13.73;;
35990;SDS011;22064;42.672;23.282;2023-09-07T01:50:38;22.42;;;13.50;;
35990;SDS011;22064;42.672;23.282;2023-09-07T01:53:04;21.75;;;13.63;;
35990;SDS011;22064;42.672;23.282;2023-09-07T01:55:31;23.38;;;14.60;;
35990;SDS011;22064;42.672;23.282;2023-09-07T01:57:58;23.20;;;14.25;;
35990;SDS011;22064;42.672;23.282;2023-09-07T02:00:25;24.65;;;14.13;;
35990;SDS011;22064;42.672;23.282;2023-09-07T02:02:51;22.75;;;14.07;;
35990;SDS011;22064;42.672;23.282;2023-09-07T02:05:17;23.73;;;14.52;;
35990;SDS011;22064;42.672;23.282;2023-09-07T02:07:43;22.35;;;14.27;;
35990;SDS011;22064;42.672;23.282;2023-09-07T02:10:09;21.17;;;14.35;;
35990;SDS011;22064;42.672;23.282;2023-09-07T02:12:36;23.58;;;14.60;;
35990;SDS011;22064;42.672;23.282;2023-09-07T02:15:02;28.20;;;15.80;;
35990;SDS011;22064;42.672;23.282;2023-09-07T02:17:30;22.98;;;15.18;;
35990;SDS011;22064;42.672;23.282;2023-09-07T02:19:56;23.77;;;14.48;;
35990;SDS011;22064;42.672;23.282;2023-09-07T02:22:22;24.45;;;15.05;;
35990;SDS011;22064;42.672;23.282;2023-09-07T02:24:48;25.48;;;14.82;;
35990;SDS011;22064;42.672;23.282;2023-09-07T02:27:14;24.70;;;13.80;;
35990;SDS011;22064;42.672;23.282;2023-09-07T02:29:40;26.83;;;16.40;;
35990;SDS011;22064;42.672;23.282;2023-09-07T02:32:06;22.10;;;14.45;;
35990;SDS011;22064;42.672;23.282;2023-09-07T02:34:32;25.25;;;15.85;;
35990;SDS011;22064;42.672;23.282;2023-09-07T02:37:02;22.52;;;14.38;;
35990;SDS011;22064;42.672;23.282;2023-09-07T02:39:29;23.45;;;14.43;;
35990;SDS011;22064;42.672;23.282;2023-09-07T02:41:55;23.85;;;14.55;;
35990;SDS011;22064;42.672;23.282;2023-09-07T02:44:21;23.80;;;14.88;;
35990;SDS011;22064;42.672;23.282;2023-09-07T02:46:47;23.73;;;14.70;;
35990;SDS011;22064;42.672;23.282;2023-09-07T02:49:13;24.33;;;14.35;;
35990;SDS011;22064;42.672;23.282;2023-09-07T02:51:39;26.02;;;15.50;;
35990;SDS011;22064;42.672;23.282;2023-09-07T02:54:05;25.20;;;15.23;;
35990;SDS011;22064;42.672;23.282;2023-09-07T02:56:32;24.17;;;14.48;;
35990;SDS011;22064;42.672;23.282;2023-09-07T02:58:58;24.25;;;14.70;;
35990;SDS011;22064;42.672;23.282;2023-09-07T03:01:25;25.40;;;15.25;;
35990;SDS011;22064;42.672;23.282;2023-09-07T03:03:51;24.48;;;15.35;;
35990;SDS011;22064;42.672;23.282;2023-09-07T03:06:17;25.38;;;15.50;;
35990;SDS011;22064;42.672;23.282;2023-09-07T03:11:13;26.75;;;16.98;;
35990;SDS011;22064;42.672;23.282;2023-09-07T03:13:40;26.10;;;16.95;;
35990;SDS011;22064;42.672;23.282;2023-09-07T03:16:07;26.50;;;16.33;;
35990;SDS011;22064;42.672;23.282;2023-09-07T03:18:33;24.60;;;16.17;;
35990;SDS011;22064;42.672;23.282;2023-09-07T03:21:00;27.85;;;16.90;;
35990;SDS011;22064;42.672;23.282;2023-09-07T03:23:28;26.17;;;17.10;;
35990;SDS011;22064;42.672;23.282;2023-09-07T03:25:57;27.83;;;18.23;;
35990;SDS011;22064;42.672;23.282;2023-09-07T03:28:24;28.58;;;18.80;;
35990;SDS011;22064;42.672;23.282;2023-09-07T03:30:54;26.58;;;17.48;;
35990;SDS011;22064;42.672;23.282;2023-09-07T03:33:20;29.05;;;19.02;;
35990;SDS011;22064;42.672;23.282;2023-09-07T03:35:46;28.73;;;18.55;;
35990;SDS011;22064;42.672;23.282;2023-09-07T03:38:13;30.38;;;19.17;;
35990;SDS011;22064;42.672;23.282;2023-09-07T03:40:39;28.98;;;18.98;;
35990;SDS011;22064;42.672;23.282;2023-09-07T03:43:05;27.13;;;17.65;;
35990;SDS011;22064;42.672;23.282;2023-09-07T03:45:32;28.98;;;19.70;;
35990;SDS011;22064;42.672;23.282;2023-09-07T03:47:59;28.98;;;19.63;;
35990;SDS011;22064;42.672;23.282;2023-09-07T03:50:25;31.60;;;20.13;;
35990;SDS011;22064;42.672;23.282;2023-09-07T03:52:51;31.00;;;19.48;;
35990;SDS011;22064;42.672;23.282;2023-09-07T03:55:17;30.75;;;19.65;;
35990;SDS011;22064;42.672;23.282;2023-09-07T03:57:43;31.02;;;19.92;;
35990;SDS011;22064;42.672;23.282;2023-09-07T04:00:10;29.88;;;19.90;;
35990;SDS011;22064;42.672;23.282;2023-09-07T04:02:42;31.15;;;19.95;;
35990;SDS011;22064;42.672;23.282;2023-09-07T04:05:08;30.42;;;18.88;;
35990;SDS011;22064;42.672;23.282;2023-09-07T04:07:36;28.90;;;19.48;;
35990;SDS011;22064;42.672;23.282;2023-09-07T04:10:04;29.88;;;20.15;;
35990;SDS011;22064;42.672;23.282;2023-09-07T04:12:30;30.52;;;19.52;;
35990;SDS011;22064;42.672;23.282;2023-09-07T04:14:57;29.73;;;20.02;;
35990;SDS011;22064;42.672;23.282;2023-09-07T04:17:23;29.63;;;19.75;;
35990;SDS011;22064;42.672;23.282;2023-09-07T04:19:49;29.85;;;19.65;;
35990;SDS011;22064;42.672;23.282;2023-09-07T04:22:15;32.00;;;20.95;;
35990;SDS011;22064;42.672;23.282;2023-09-07T04:24:42;32.17;;;20.48;;
35990;SDS011;22064;42.672;23.282;2023-09-07T04:27:09;29.67;;;20.02;;
35990;SDS011;22064;42.672;23.282;2023-09-07T04:29:35;31.42;;;19.38;;
35990;SDS011;22064;42.672;23.282;2023-09-07T04:32:01;30.40;;;20.00;;
35990;SDS011;22064;42.672;23.282;2023-09-07T04:34:28;33.15;;;21.25;;
35990;SDS011;22064;42.672;23.282;2023-09-07T04:36:54;30.75;;;20.30;;
35990;SDS011;22064;42.672;23.282;2023-09-07T04:39:20;29.83;;;19.33;;
35990;SDS011;22064;42.672;23.282;2023-09-07T04:41:46;31.40;;;19.20;;
35990;SDS011;22064;42.672;23.282;2023-09-07T04:44:13;27.27;;;18.92;;
35990;SDS011;22064;42.672;23.282;2023-09-07T04:46:40;30.70;;;20.08;;
35990;SDS011;22064;42.672;23.282;2023-09-07T04:49:06;27.75;;;18.40;;
35990;SDS011;22064;42.672;23.282;2023-09-07T04:51:33;27.83;;;18.80;;
35990;SDS011;22064;42.672;23.282;2023-09-07T04:53:59;28.75;;;17.92;;
35990;SDS011;22064;42.672;23.282;2023-09-07T04:56:25;28.67;;;18.83;;
35990;SDS011;22064;42.672;23.282;2023-09-07T04:58:53;28.70;;;18.50;;
35990;SDS011;22064;42.672;23.282;2023-09-07T05:01:19;30.08;;;18.35;;
35990;SDS011;22064;42.672;23.282;2023-09-07T05:03:46;29.40;;;18.33;;
35990;SDS011;22064;42.672;23.282;2023-09-07T05:06:12;27.23;;;17.35;;
35990;SDS011;22064;42.672;23.282;2023-09-07T05:08:42;28.95;;;17.55;;
35990;SDS011;22064;42.672;23.282;2023-09-07T05:11:08;26.85;;;16.98;;
35990;SDS011;22064;42.672;23.282;2023-09-07T05:13:34;26.08;;;17.25;;
35990;SDS011;22064;42.672;23.282;2023-09-07T05:16:01;25.58;;;15.95;;
35990;SDS011;22064;42.672;23.282;2023-09-07T05:18:28;26.20;;;17.23;;
35990;SDS011;22064;42.672;23.282;2023-09-07T05:20:54;25.70;;;16.92;;
35990;SDS011;22064;42.672;23.282;2023-09-07T05:23:20;24.90;;;16.38;;
35990;SDS011;22064;42.672;23.282;2023-09-07T05:25:49;25.70;;;16.42;;
35990;SDS011;22064;42.672;23.282;2023-09-07T05:28:17;27.27;;;16.92;;
35990;SDS011;22064;42.672;23.282;2023-09-07T05:30:44;27.92;;;17.38;;
35990;SDS011;22064;42.672;23.282;2023-09-07T05:33:11;27.45;;;17.52;;
35990;SDS011;22064;42.672;23.282;2023-09-07T05:35:40;27.55;;;18.15;;
35990;SDS011;22064;42.672;23.282;2023-09-07T05:38:08;26.05;;;17.50;;
35990;SDS011;22064;42.672;23.282;2023-09-07T05:40:39;28.75;;;17.85;;
35990;SDS011;22064;42.672;23.282;2023-09-07T05:43:07;28.15;;;17.92;;
35990;SDS011;22064;42.672;23.282;2023-09-07T05:45:34;30.23;;;16.73;;
35990;SDS011;22064;42.672;23.282;2023-09-07T05:48:11;28.45;;;18.63;;
35990;SDS011;22064;42.672;23.282;2023-09-07T05:50:37;27.75;;;17.02;;
35990;SDS011;22064;42.672;23.282;2023-09-07T05:53:04;28.27;;;17.75;;
35990;SDS011;22064;42.672;23.282;2023-09-07T05:55:32;26.02;;;16.30;;
35990;SDS011;22064;42.672;23.282;2023-09-07T05:57:58;28.05;;;15.95;;
35990;SDS011;22064;42.672;23.282;2023-09-07T06:00:27;26.92;;;16.10;;
35990;SDS011;22064;42.672;23.282;2023-09-07T06:02:53;23.15;;;15.30;;
35990;SDS011;22064;42.672;23.282;2023-09-07T06:05:19;26.65;;;15.23;;
35990;SDS011;22064;42.672;23.282;2023-09-07T06:07:46;25.30;;;15.52;;
35990;SDS011;22064;42.672;23.282;2023-09-07T06:10:14;26.40;;;15.63;;
35990;SDS011;22064;42.672;23.282;2023-09-07T06:12:41;22.58;;;14.75;;
35990;SDS011;22064;42.672;23.282;2023-09-07T06:15:07;27.13;;;15.95;;
35990;SDS011;22064;42.672;23.282;2023-09-07T06:17:34;22.83;;;13.77;;
35990;SDS011;22064;42.672;23.282;2023-09-07T06:20:00;22.25;;;14.40;;
35990;SDS011;22064;42.672;23.282;2023-09-07T06:22:26;22.67;;;14.00;;
35990;SDS011;22064;42.672;23.282;2023-09-07T06:24:53;23.08;;;14.48;;
35990;SDS011;22064;42.672;23.282;2023-09-07T06:27:20;20.20;;;12.82;;
35990;SDS011;22064;42.672;23.282;2023-09-07T06:29:46;20.45;;;11.82;;
35990;SDS011;22064;42.672;23.282;2023-09-07T06:32:13;19.45;;;12.32;;
35990;SDS011;22064;42.672;23.282;2023-09-07T06:34:39;19.23;;;11.27;;
35990;SDS011;22064;42.672;23.282;2023-09-07T06:37:06;22.10;;;11.50;;
35990;SDS011;22064;42.672;23.282;2023-09-07T06:39:32;21.08;;;11.15;;
35990;SDS011;22064;42.672;23.282;2023-09-07T06:41:58;19.40;;;10.48;;
35990;SDS011;22064;42.672;23.282;2023-09-07T06:44:29;22.33;;;10.10;;
35990;SDS011;22064;42.672;23.282;2023-09-07T06:46:56;18.08;;;10.40;;
35990;SDS011;22064;42.672;23.282;2023-09-07T06:49:22;14.88;;;9.13;;
35990;SDS011;22064;42.672;23.282;2023-09-07T06:51:48;15.43;;;9.05;;
35990;SDS011;22064;42.672;23.282;2023-09-07T06:54:15;15.10;;;8.98;;
35990;SDS011;22064;42.672;23.282;2023-09-07T06:56:41;14.68;;;8.75;;
35990;SDS011;22064;42.672;23.282;2023-09-07T06:59:08;13.18;;;8.10;;
35990;SDS011;22064;42.672;23.282;2023-09-07T07:01:34;14.95;;;8.50;;
35990;SDS011;22064;42.672;23.282;2023-09-07T07:04:01;14.18;;;8.85;;
35990;SDS011;22064;42.672;23.282;2023-09-07T07:06:28;12.70;;;7.95;;
35990;SDS011;22064;42.672;23.282;2023-09-07T07:08:53;15.57;;;8.70;;
35990;SDS011;22064;42.672;23.282;2023-09-07T07:11:20;14.68;;;8.77;;
35990;SDS011;22064;42.672;23.282;2023-09-07T07:13:46;16.48;;;9.05;;
35990;SDS011;22064;42.672;23.282;2023-09-07T07:16:12;17.63;;;9.73;;
35990;SDS011;22064;42.672;23.282;2023-09-07T07:18:39;19.85;;;9.43;;
35990;SDS011;22064;42.672;23.282;2023-09-07T07:21:06;18.10;;;8.85;;
35990;SDS011;22064;42.672;23.282;2023-09-07T07:23:32;14.45;;;8.15;;
35990;SDS011;22064;42.672;23.282;2023-09-07T07:25:58;15.45;;;8.10;;
35990;SDS011;22064;42.672;23.282;2023-09-07T07:28:25;12.73;;;7.95;;
35990;SDS011;22064;42.672;23.282;2023-09-07T07:30:51;15.40;;;8.80;;
35990;SDS011;22064;42.672;23.282;2023-09-07T07:33:19;14.48;;;8.77;;
35990;SDS011;22064;42.672;23.282;2023-09-07T07:35:46;13.95;;;8.63;;
35990;SDS011;22064;42.672;23.282;2023-09-07T07:38:14;16.70;;;8.90;;
35990;SDS011;22064;42.672;23.282;2023-09-07T07:40:41;14.95;;;8.90;;
35990;SDS011;22064;42.672;23.282;2023-09-07T07:43:09;16.58;;;9.48;;
35990;SDS011;22064;42.672;23.282;2023-09-07T07:45:37;17.40;;;8.50;;
35990;SDS011;22064;42.672;23.282;2023-09-07T07:48:04;14.93;;;8.68;;
35990;SDS011;22064;42.672;23.282;2023-09-07T07:50:39;14.75;;;8.70;;
35990;SDS011;22064;42.672;23.282;2023-09-07T07:53:07;16.05;;;9.73;;
35990;SDS011;22064;42.672;23.282;2023-09-07T07:55:37;15.75;;;9.55;;
35990;SDS011;22064;42.672;23.282;2023-09-07T07:58:10;21.40;;;9.93;;
35990;SDS011;22064;42.672;23.282;2023-09-07T08:00:37;18.52;;;9.18;;
35990;SDS011;22064;42.672;23.282;2023-09-07T08:03:05;14.80;;;8.50;;
35990;SDS011;22064;42.672;23.282;2023-09-07T08:05:33;16.58;;;8.38;;
35990;SDS011;22064;42.672;23.282;2023-09-07T08:08:00;15.13;;;7.95;;
35990;SDS011;22064;42.672;23.282;2023-09-07T08:10:27;19.23;;;9.55;;
35990;SDS011;22064;42.672;23.282;2023-09-07T08:12:56;16.33;;;8.43;;
35990;SDS011;22064;42.672;23.282;2023-09-07T08:15:23;13.70;;;8.75;;
35990;SDS011;22064;42.672;23.282;2023-09-07T08:17:51;17.98;;;9.35;;
35990;SDS011;22064;42.672;23.282;2023-09-07T08:20:17;16.33;;;8.85;;
35990;SDS011;22064;42.672;23.282;2023-09-07T08:22:43;14.80;;;8.63;;
35990;SDS011;22064;42.672;23.282;2023-09-07T08:25:12;16.52;;;8.63;;
35990;SDS011;22064;42.672;23.282;2023-09-07T08:27:43;15.13;;;8.20;;
35990;SDS011;22064;42.672;23.282;2023-09-07T08:30:16;17.98;;;9.10;;
35990;SDS011;22064;42.672;23.282;2023-09-07T08:32:44;12.82;;;8.20;;
35990;SDS011;22064;42.672;23.282;2023-09-07T08:35:11;14.05;;;8.10;;
35990;SDS011;22064;42.672;23.282;2023-09-07T08:37:42;14.77;;;7.75;;
35990;SDS011;22064;42.672;23.282;2023-09-07T08:40:08;19.63;;;8.48;;
35990;SDS011;22064;42.672;23.282;2023-09-07T08:42:36;13.13;;;7.70;;
35990;SDS011;22064;42.672;23.282;2023-09-07T08:45:03;14.70;;;7.68;;
35990;SDS011;22064;42.672;23.282;2023-09-07T08:47:34;15.77;;;7.60;;
35990;SDS011;22064;42.672;23.282;2023-09-07T08:50:02;13.68;;;7.70;;
35990;SDS011;22064;42.672;23.282;2023-09-07T08:52:28;15.07;;;8.10;;
35990;SDS011;22064;42.672;23.282;2023-09-07T08:54:55;12.98;;;8.23;;
35990;SDS011;22064;42.672;23.282;2023-09-07T08:57:24;13.65;;;7.25;;
35990;SDS011;22064;42.672;23.282;2023-09-07T08:59:50;12.82;;;7.38;;
35990;SDS011;22064;42.672;23.282;2023-09-07T09:02:16;13.27;;;8.00;;
35990;SDS011;22064;42.672;23.282;2023-09-07T09:04:42;15.98;;;8.55;;
35990;SDS011;22064;42.672;23.282;2023-09-07T09:07:08;18.05;;;7.82;;
35990;SDS011;22064;42.672;23.282;2023-09-07T09:09:34;12.60;;;7.20;;
35990;SDS011;22064;42.672;23.282;2023-09-07T09:12:13;11.98;;;7.20;;
35990;SDS011;22064;42.672;23.282;2023-09-07T09:14:42;13.68;;;6.90;;
35990;SDS011;22064;42.672;23.282;2023-09-07T09:17:12;12.60;;;6.75;;
35990;SDS011;22064;42.672;23.282;2023-09-07T09:19:40;11.00;;;6.97;;
35990;SDS011;22064;42.672;23.282;2023-09-07T09:22:09;13.82;;;7.32;;
35990;SDS011;22064;42.672;23.282;2023-09-07T09:24:37;10.75;;;6.57;;
35990;SDS011;22064;42.672;23.282;2023-09-07T09:27:04;12.00;;;6.32;;
35990;SDS011;22064;42.672;23.282;2023-09-07T09:29:32;9.25;;;5.75;;
35990;SDS011;22064;42.672;23.282;2023-09-07T09:31:59;11.18;;;6.00;;
35990;SDS011;22064;42.672;23.282;2023-09-07T09:34:33;10.23;;;6.10;;
35990;SDS011;22064;42.672;23.282;2023-09-07T09:37:01;10.20;;;6.70;;
35990;SDS011;22064;42.672;23.282;2023-09-07T09:39:29;12.23;;;6.30;;
35990;SDS011;22064;42.672;23.282;2023-09-07T09:41:55;11.68;;;6.07;;
35990;SDS011;22064;42.672;23.282;2023-09-07T09:44:23;11.15;;;6.38;;
35990;SDS011;22064;42.672;23.282;2023-09-07T09:46:52;9.00;;;6.30;;
35990;SDS011;22064;42.672;23.282;2023-09-07T09:49:22;12.27;;;7.38;;
35990;SDS011;22064;42.672;23.282;2023-09-07T09:51:49;12.25;;;6.20;;
35990;SDS011;22064;42.672;23.282;2023-09-07T09:54:18;10.98;;;6.22;;
35990;SDS011;22064;42.672;23.282;2023-09-07T09:56:44;11.52;;;6.65;;
35990;SDS011;22064;42.672;23.282;2023-09-07T09:59:11;13.80;;;6.35;;
35990;SDS011;22064;42.672;23.282;2023-09-07T10:01:42;13.13;;;5.97;;
35990;SDS011;22064;42.672;23.282;2023-09-07T10:04:13;12.13;;;6.30;;
35990;SDS011;22064;42.672;23.282;2023-09-07T10:06:49;9.77;;;6.15;;
35990;SDS011;22064;42.672;23.282;2023-09-07T10:11:50;15.40;;;6.40;;
35990;SDS011;22064;42.672;23.282;2023-09-07T10:14:20;9.43;;;5.90;;
35990;SDS011;22064;42.672;23.282;2023-09-07T10:16:47;10.60;;;6.10;;
35990;SDS011;22064;42.672;23.282;2023-09-07T10:19:23;11.35;;;6.18;;
35990;SDS011;22064;42.672;23.282;2023-09-07T10:21:52;13.00;;;6.43;;
35990;SDS011;22064;42.672;23.282;2023-09-07T10:24:31;15.93;;;6.60;;
35990;SDS011;22064;42.672;23.282;2023-09-07T10:29:41;12.82;;;6.32;;
35990;SDS011;22064;42.672;23.282;2023-09-07T10:32:08;10.55;;;6.07;;
35990;SDS011;22064;42.672;23.282;2023-09-07T10:34:36;11.73;;;6.13;;
35990;SDS011;22064;42.672;23.282;2023-09-07T10:37:08;10.20;;;5.95;;
35990;SDS011;22064;42.672;23.282;2023-09-07T10:39:44;11.73;;;7.15;;
35990;SDS011;22064;42.672;23.282;2023-09-07T10:42:20;11.57;;;6.00;;
35990;SDS011;22064;42.672;23.282;2023-09-07T10:44:50;10.73;;;6.03;;
35990;SDS011;22064;42.672;23.282;2023-09-07T10:47:16;11.00;;;6.38;;
35990;SDS011;22064;42.672;23.282;2023-09-07T10:49:42;12.20;;;6.63;;
35990;SDS011;22064;42.672;23.282;2023-09-07T10:52:08;14.15;;;6.32;;
35990;SDS011;22064;42.672;23.282;2023-09-07T10:54:34;11.15;;;6.18;;
35990;SDS011;22064;42.672;23.282;2023-09-07T10:57:10;13.25;;;6.25;;
35990;SDS011;22064;42.672;23.282;2023-09-07T10:59:43;9.60;;;6.53;;
35990;SDS011;22064;42.672;23.282;2023-09-07T11:02:10;10.75;;;5.72;;
35990;SDS011;22064;42.672;23.282;2023-09-07T11:04:36;12.95;;;5.80;;
35990;SDS011;22064;42.672;23.282;2023-09-07T11:07:01;10.48;;;6.03;;
35990;SDS011;22064;42.672;23.282;2023-09-07T11:09:29;13.30;;;6.50;;
35990;SDS011;22064;42.672;23.282;2023-09-07T11:11:56;12.70;;;6.30;;
35990;SDS011;22064;42.672;23.282;2023-09-07T11:14:22;13.18;;;5.78;;
35990;SDS011;22064;42.672;23.282;2023-09-07T11:16:48;11.07;;;6.35;;
35990;SDS011;22064;42.672;23.282;2023-09-07T11:19:14;12.27;;;6.93;;
35990;SDS011;22064;42.672;23.282;2023-09-07T11:21:44;10.48;;;5.63;;
35990;SDS011;22064;42.672;23.282;2023-09-07T11:24:10;11.68;;;5.53;;
35990;SDS011;22064;42.672;23.282;2023-09-07T11:26:42;13.15;;;6.60;;
35990;SDS011;22064;42.672;23.282;2023-09-07T11:29:13;12.00;;;5.45;;
35990;SDS011;22064;42.672;23.282;2023-09-07T11:31:40;10.68;;;5.78;;
35990;SDS011;22064;42.672;23.282;2023-09-07T11:34:13;12.80;;;5.70;;
35990;SDS011;22064;42.672;23.282;2023-09-07T11:36:40;11.30;;;5.55;;
35990;SDS011;22064;42.672;23.282;2023-09-07T11:39:07;10.75;;;5.85;;
35990;SDS011;22064;42.672;23.282;2023-09-07T11:41:40;8.85;;;5.38;;
35990;SDS011;22064;42.672;23.282;2023-09-07T11:46:35;10.50;;;5.10;;
35990;SDS011;22064;42.672;23.282;2023-09-07T11:49:02;9.55;;;5.70;;
35990;SDS011;22064;42.672;23.282;2023-09-07T11:51:30;9.80;;;5.25;;
35990;SDS011;22064;42.672;23.282;2023-09-07T11:53:56;10.50;;;5.20;;
35990;SDS011;22064;42.672;23.282;2023-09-07T11:56:22;9.15;;;5.80;;
35990;SDS011;22064;42.672;23.282;2023-09-07T11:58:49;11.68;;;5.60;;
35990;SDS011;22064;42.672;23.282;2023-09-07T12:01:15;10.43;;;5.15;;
35990;SDS011;22064;42.672;23.282;2023-09-07T12:03:42;7.00;;;5.10;;
35990;SDS011;22064;42.672;23.282;2023-09-07T12:06:08;10.40;;;5.18;;
35990;SDS011;22064;42.672;23.282;2023-09-07T12:08:35;9.77;;;5.50;;
35990;SDS011;22064;42.672;23.282;2023-09-07T12:11:02;10.38;;;5.40;;
35990;SDS011;22064;42.672;23.282;2023-09-07T12:13:28;8.13;;;5.20;;
35990;SDS011;22064;42.672;23.282;2023-09-07T12:15:54;10.13;;;5.40;;
35990;SDS011;22064;42.672;23.282;2023-09-07T12:18:21;10.25;;;5.93;;
35990;SDS011;22064;42.672;23.282;2023-09-07T12:20:47;9.25;;;4.63;;
35990;SDS011;22064;42.672;23.282;2023-09-07T12:23:13;12.32;;;5.50;;
35990;SDS011;22064;42.672;23.282;2023-09-07T12:25:39;9.20;;;4.93;;
35990;SDS011;22064;42.672;23.282;2023-09-07T12:28:05;9.88;;;5.50;;
35990;SDS011;22064;42.672;23.282;2023-09-07T12:30:31;10.88;;;5.07;;
35990;SDS011;22064;42.672;23.282;2023-09-07T12:32:58;10.85;;;5.53;;
35990;SDS011;22064;42.672;23.282;2023-09-07T12:35:24;7.57;;;5.18;;
35990;SDS011;22064;42.672;23.282;2023-09-07T12:37:50;11.82;;;5.43;;
35990;SDS011;22064;42.672;23.282;2023-09-07T12:40:16;9.52;;;5.32;;
35990;SDS011;22064;42.672;23.282;2023-09-07T12:42:43;9.57;;;4.95;;
35990;SDS011;22064;42.672;23.282;2023-09-07T12:45:10;8.18;;;5.43;;
35990;SDS011;22064;42.672;23.282;2023-09-07T12:47:37;10.30;;;5.60;;
35990;SDS011;22064;42.672;23.282;2023-09-07T12:50:04;8.65;;;5.30;;
35990;SDS011;22064;42.672;23.282;2023-09-07T12:52:31;11.07;;;5.40;;
35990;SDS011;22064;42.672;23.282;2023-09-07T12:54:57;10.80;;;4.80;;
35990;SDS011;22064;42.672;23.282;2023-09-07T12:57:23;10.35;;;4.88;;
35990;SDS011;22064;42.672;23.282;2023-09-07T12:59:49;11.73;;;4.90;;
35990;SDS011;22064;42.672;23.282;2023-09-07T13:02:15;7.38;;;4.90;;
35990;SDS011;22064;42.672;23.282;2023-09-07T13:04:41;11.30;;;5.43;;
35990;SDS011;22064;42.672;23.282;2023-09-07T13:07:06;10.52;;;5.30;;
35990;SDS011;22064;42.672;23.282;2023-09-07T13:09:32;7.20;;;4.85;;
35990;SDS011;22064;42.672;23.282;2023-09-07T13:11:58;10.70;;;5.10;;
35990;SDS011;22064;42.672;23.282;2023-09-07T13:14:24;13.70;;;5.43;;
35990;SDS011;22064;42.672;23.282;2023-09-07T13:16:50;9.77;;;5.43;;
35990;SDS011;22064;42.672;23.282;2023-09-07T13:19:16;11.68;;;5.93;;
35990;SDS011;22064;42.672;23.282;2023-09-07T13:21:42;10.45;;;5.15;;
35990;SDS011;22064;42.672;23.282;2023-09-07T13:24:08;8.65;;;4.95;;
35990;SDS011;22064;42.672;23.282;2023-09-07T13:26:34;10.95;;;5.43;;
35990;SDS011;22064;42.672;23.282;2023-09-07T13:29:02;11.32;;;5.15;;
35990;SDS011;22064;42.672;23.282;2023-09-07T13:31:28;9.93;;;4.72;;
35990;SDS011;22064;42.672;23.282;2023-09-07T13:33:54;8.90;;;4.80;;
35990;SDS011;22064;42.672;23.282;2023-09-07T13:36:20;6.60;;;4.80;;
35990;SDS011;22064;42.672;23.282;2023-09-07T13:38:46;15.00;;;5.05;;
35990;SDS011;22064;42.672;23.282;2023-09-07T13:41:12;7.07;;;4.82;;
35990;SDS011;22064;42.672;23.282;2023-09-07T13:43:38;14.70;;;4.82;;
35990;SDS011;22064;42.672;23.282;2023-09-07T13:46:04;8.43;;;4.65;;
35990;SDS011;22064;42.672;23.282;2023-09-07T13:48:30;7.72;;;4.72;;
35990;SDS011;22064;42.672;23.282;2023-09-07T13:50:58;17.63;;;6.78;;
35990;SDS011;22064;42.672;23.282;2023-09-07T13:53:24;9.00;;;5.32;;
35990;SDS011;22064;42.672;23.282;2023-09-07T13:55:50;7.95;;;5.03;;
35990;SDS011;22064;42.672;23.282;2023-09-07T13:58:16;7.22;;;5.07;;
35990;SDS011;22064;42.672;23.282;2023-09-07T14:00:41;12.35;;;5.65;;
35990;SDS011;22064;42.672;23.282;2023-09-07T14:03:08;11.63;;;5.38;;
35990;SDS011;22064;42.672;23.282;2023-09-07T14:05:33;7.78;;;5.10;;
35990;SDS011;22064;42.672;23.282;2023-09-07T14:08:00;8.13;;;5.13;;
35990;SDS011;22064;42.672;23.282;2023-09-07T14:10:26;9.90;;;5.22;;
35990;SDS011;22064;42.672;23.282;2023-09-07T14:12:52;13.00;;;5.38;;
35990;SDS011;22064;42.672;23.282;2023-09-07T14:15:18;10.13;;;5.78;;
35990;SDS011;22064;42.672;23.282;2023-09-07T14:17:44;12.13;;;5.35;;
35990;SDS011;22064;42.672;23.282;2023-09-07T14:20:10;10.27;;;6.00;;
35990;SDS011;22064;42.672;23.282;2023-09-07T14:22:36;9.68;;;4.80;;
35990;SDS011;22064;42.672;23.282;2023-09-07T14:25:03;8.98;;;5.38;;
35990;SDS011;22064;42.672;23.282;2023-09-07T14:27:29;8.65;;;4.90;;
35990;SDS011;22064;42.672;23.282;2023-09-07T14:29:55;10.70;;;5.03;;